首页
METAR-TAF:

METAR-TAF

机场 :

那不勒斯國際機場

那不勒斯, 意大利

纬度: 40-51N, 经度: 014-18E, 海拔: 88米

当前天气观测

该预报发布于36分钟前的19:20 UTC
风速3节,风向南转西南
温度 17°C
湿度 94%
气压 1004 hPa
能见度10公里或以上
散云层高于3000英尺

METAR: LIRN 051920Z 20003KT 9999 SCT030 17/16 Q1004 NOSIG

时间: 21:56 (19:56 UTC)

预报

该预报发布于2小时和56分钟前的17:00 UTC
预报有效从05日的 18点(UTC)到 06日的 18点(UTC)
风速5节,风向多变
能见度10公里或以上
散云层高于3000英尺
成为
从 06日的 08点(UTC)到 06日的 10点(UTC)
风速10节,风向西转西南

TAF: LIRN 051700Z 0518/0618 VRB05KT 9999 SCT030 BECMG 0608/0610 24010KT

超过4000个机场的气象观测和天气预报(METAR&TAF报告)。

可查询的气象台以黄色和红色小点在地图上表示。

将鼠标移到小点上方,可查看气象台名称。

然后点击查看天气观测和预报。

如需切换地图:点击带黑十字的绿色按钮放大地图;点击带横线的绿色按钮缩小地图;或者点击绿色箭头查看邻近地区的地图。


METAR-TAF: